createdAt,value
2019-02-05T00:00:36.991Z,10.28
2019-02-05T00:03:13.073Z,12.68
2019-02-05T00:05:41.535Z,10.70
2019-02-05T00:08:10.112Z,10.90
2019-02-05T00:10:38.591Z,10.90
2019-02-05T00:13:11.367Z,11.40
2019-02-05T00:15:39.811Z,11.03
2019-02-05T00:18:08.243Z,10.65
2019-02-05T00:20:36.699Z,10.80
2019-02-05T00:23:05.155Z,12.90
2019-02-05T00:25:33.595Z,9.90
2019-02-05T00:28:02.010Z,11.10
2019-02-05T00:30:30.463Z,11.28
2019-02-05T00:32:58.887Z,11.00
2019-02-05T00:35:27.312Z,11.20
2019-02-05T00:37:55.762Z,10.65
2019-02-05T00:40:24.201Z,10.78
2019-02-05T00:42:56.635Z,11.55
2019-02-05T00:45:25.475Z,11.15
2019-02-05T00:47:53.903Z,10.55
2019-02-05T00:50:22.669Z,10.65
2019-02-05T00:52:51.114Z,9.45
2019-02-05T00:55:20.510Z,9.23
2019-02-05T00:57:48.928Z,10.18
2019-02-05T01:00:20.990Z,11.12
2019-02-05T01:02:49.984Z,10.30
2019-02-05T01:05:18.958Z,10.95
2019-02-05T01:07:48.001Z,9.68
2019-02-05T01:10:16.885Z,10.45
2019-02-05T01:12:45.305Z,10.45
2019-02-05T01:15:23.225Z,10.75
2019-02-05T01:17:51.986Z,10.23
2019-02-05T01:20:21.972Z,10.70
2019-02-05T01:22:50.719Z,11.28
2019-02-05T01:25:20.809Z,10.30
2019-02-05T01:27:50.827Z,10.88
2019-02-05T01:30:21.898Z,10.90
2019-02-05T01:32:50.801Z,10.65
2019-02-05T01:35:19.218Z,9.50
2019-02-05T01:37:47.803Z,9.25
2019-02-05T01:40:18.927Z,10.60
2019-02-05T01:42:47.628Z,9.78
2019-02-05T01:45:21.625Z,10.90
2019-02-05T01:47:50.068Z,10.63
2019-02-05T01:50:24.579Z,9.43
2019-02-05T01:52:53.046Z,10.68
2019-02-05T01:55:21.839Z,9.93
2019-02-05T01:57:50.476Z,11.88
2019-02-05T02:00:21.293Z,9.53
2019-02-05T02:02:49.985Z,10.68
2019-02-05T02:05:18.623Z,10.88
2019-02-05T02:07:47.499Z,11.73
2019-02-05T02:10:19.439Z,11.08
2019-02-05T02:12:47.881Z,12.05
2019-02-05T02:15:20.191Z,11.22
2019-02-05T02:17:48.711Z,12.50
2019-02-05T02:20:19.014Z,11.60
2019-02-05T02:22:48.262Z,10.65
2019-02-05T02:25:17.609Z,11.35
2019-02-05T02:27:47.039Z,10.88
2019-02-05T02:30:24.196Z,9.40
2019-02-05T02:32:52.650Z,11.48
2019-02-05T02:35:21.189Z,11.03
2019-02-05T02:37:50.162Z,10.65
2019-02-05T02:40:18.619Z,11.05
2019-02-05T02:42:47.203Z,11.88
2019-02-05T02:45:16.472Z,12.13
2019-02-05T02:47:44.921Z,12.18
2019-02-05T02:50:18.926Z,13.85
2019-02-05T02:52:48.240Z,11.68
2019-02-05T02:55:16.787Z,12.15
2019-02-05T02:57:45.921Z,14.20
2019-02-05T03:00:21.639Z,13.62
2019-02-05T03:02:51.870Z,13.90
2019-02-05T03:05:24.620Z,13.83
2019-02-05T03:07:53.475Z,15.65
2019-02-05T03:10:24.901Z,12.70
2019-02-05T03:12:54.273Z,13.05
2019-02-05T03:15:23.160Z,11.93
2019-02-05T03:17:51.827Z,13.98
2019-02-05T03:20:20.792Z,13.18
2019-02-05T03:22:49.711Z,13.15
2019-02-05T03:25:21.027Z,13.45
2019-02-05T03:27:53.313Z,13.45
2019-02-05T03:30:22.564Z,16.05
2019-02-05T03:32:51.720Z,12.70
2019-02-05T03:35:20.830Z,14.23
2019-02-05T03:37:50.115Z,15.23
2019-02-05T03:40:31.167Z,14.23
2019-02-05T03:43:00.411Z,13.58
2019-02-05T03:45:31.847Z,15.38
2019-02-05T03:48:08.952Z,14.18
2019-02-05T03:50:43.227Z,16.37
2019-02-05T03:53:40.504Z,14.25
2019-02-05T03:56:26.623Z,13.93
2019-02-05T03:59:09.298Z,14.00
2019-02-05T04:01:56.443Z,16.80
2019-02-05T04:04:27.930Z,13.72
2019-02-05T04:07:07.995Z,14.65
2019-02-05T04:09:48.183Z,15.70
2019-02-05T04:12:25.789Z,16.32
2019-02-05T04:15:18.201Z,15.63
2019-02-05T04:18:08.045Z,15.32
2019-02-05T04:20:49.107Z,14.78
2019-02-05T04:23:26.425Z,17.35
2019-02-05T04:26:03.701Z,14.98
2019-02-05T04:28:53.520Z,14.30
2019-02-05T04:31:25.063Z,15.88
2019-02-05T04:34:15.766Z,16.45
2019-02-05T04:36:53.769Z,14.15
2019-02-05T04:39:27.939Z,17.45
2019-02-05T04:41:59.440Z,15.38
2019-02-05T04:44:36.053Z,16.10
2019-02-05T04:47:13.925Z,15.08
2019-02-05T04:49:51.021Z,14.30
2019-02-05T04:52:34.358Z,15.98
2019-02-05T04:55:05.946Z,15.32
2019-02-05T04:57:57.463Z,16.95
2019-02-05T05:00:34.811Z,17.60
2019-02-05T05:03:19.490Z,15.68
2019-02-05T05:05:53.931Z,17.73
2019-02-05T05:08:34.271Z,15.18
2019-02-05T05:11:02.829Z,18.70
2019-02-05T05:13:31.831Z,15.50
2019-02-05T05:16:00.927Z,18.00
2019-02-05T05:18:29.432Z,17.32
2019-02-05T05:20:58.193Z,16.25
2019-02-05T05:23:27.179Z,14.35
2019-02-05T05:25:55.927Z,16.85
2019-02-05T05:28:24.987Z,17.37
2019-02-05T05:30:54.260Z,18.87
2019-02-05T05:33:22.803Z,17.67
2019-02-05T05:35:51.267Z,17.92
2019-02-05T05:38:19.749Z,18.55
2019-02-05T05:40:48.200Z,18.30
2019-02-05T05:43:16.962Z,18.07
2019-02-05T05:45:45.499Z,18.30
2019-02-05T05:48:14.307Z,17.23
2019-02-05T05:50:42.804Z,19.62
2019-02-05T05:53:11.254Z,16.57
2019-02-05T05:55:39.757Z,16.35
2019-02-05T05:58:08.227Z,19.27
2019-02-05T06:00:36.710Z,18.50
2019-02-05T06:03:05.280Z,19.12
2019-02-05T06:05:34.201Z,19.37
2019-02-05T06:08:02.615Z,18.65
2019-02-05T06:10:31.146Z,16.57
2019-02-05T06:12:59.878Z,17.90
2019-02-05T06:15:28.371Z,18.55
2019-02-05T06:17:56.814Z,19.70
2019-02-05T06:20:25.350Z,16.75
2019-02-05T06:22:54.184Z,19.52
2019-02-05T06:25:22.661Z,17.92
2019-02-05T06:27:51.139Z,21.45
2019-02-05T06:30:19.687Z,17.48
2019-02-05T06:32:48.256Z,19.50
2019-02-05T06:35:16.727Z,19.62
2019-02-05T06:37:45.328Z,18.27
2019-02-05T06:40:17.329Z,17.67
2019-02-05T06:42:45.759Z,17.35
2019-02-05T06:45:15.662Z,18.50
2019-02-05T06:47:44.229Z,18.73
2019-02-05T06:50:14.110Z,19.05
2019-02-05T06:52:42.545Z,18.80
2019-02-05T06:55:13.712Z,19.23
2019-02-05T06:57:42.134Z,15.80
2019-02-05T07:00:22.266Z,17.37
2019-02-05T07:02:52.935Z,20.50
2019-02-05T07:05:20.966Z,19.40
2019-02-05T07:07:49.410Z,17.95
2019-02-05T07:10:23.787Z,19.20
2019-02-05T07:12:52.338Z,18.27
2019-02-05T07:15:20.905Z,16.87
2019-02-05T07:17:50.377Z,16.50
2019-02-05T07:20:19.001Z,17.40
2019-02-05T07:22:47.425Z,17.77
2019-02-05T07:25:23.651Z,18.07
2019-02-05T07:27:52.234Z,17.30
2019-02-05T07:30:25.977Z,18.55
2019-02-05T07:32:54.738Z,17.95
2019-02-05T07:35:23.245Z,17.73
2019-02-05T07:37:51.758Z,17.82
2019-02-05T07:40:22.573Z,18.25
2019-02-05T07:42:51.258Z,18.50
2019-02-05T07:45:23.967Z,17.65
2019-02-05T07:47:52.474Z,16.67
2019-02-05T07:50:23.632Z,18.25
2019-02-05T07:52:52.456Z,18.57
2019-02-05T07:55:21.654Z,17.12
2019-02-05T07:57:50.351Z,17.75
2019-02-05T08:00:26.976Z,18.73
2019-02-05T08:02:56.006Z,20.50
2019-02-05T08:05:27.660Z,17.50
2019-02-05T08:07:56.634Z,16.35
2019-02-05T08:10:25.125Z,18.55
2019-02-05T08:12:53.863Z,15.18
2019-02-05T08:15:27.904Z,17.45
2019-02-05T08:17:56.336Z,18.32
2019-02-05T08:20:29.561Z,16.20
2019-02-05T08:22:58.530Z,15.78
2019-02-05T08:25:27.030Z,17.73
2019-02-05T08:27:56.104Z,15.65
2019-02-05T08:30:30.662Z,18.52
2019-02-05T08:32:59.548Z,17.23
2019-02-05T08:35:28.775Z,17.42
2019-02-05T08:37:57.190Z,16.10
2019-02-05T08:40:25.707Z,17.30
2019-02-05T08:42:54.212Z,18.05
2019-02-05T08:45:26.162Z,16.02
2019-02-05T08:47:54.767Z,19.12
2019-02-05T08:50:28.408Z,16.50
2019-02-05T08:52:56.996Z,16.80
2019-02-05T08:55:25.870Z,18.30
2019-02-05T08:58:05.833Z,17.10
2019-02-05T09:00:39.467Z,17.92
2019-02-05T09:03:10.417Z,19.05
2019-02-05T09:05:39.370Z,15.90
2019-02-05T09:08:08.067Z,18.32
2019-02-05T09:10:38.915Z,19.35
2019-02-05T09:13:07.488Z,16.17
2019-02-05T09:15:35.982Z,16.73
2019-02-05T09:18:05.260Z,17.95
2019-02-05T09:20:33.701Z,19.35
2019-02-05T09:23:02.395Z,16.75
2019-02-05T09:25:30.910Z,19.00
2019-02-05T09:27:59.477Z,16.73
2019-02-05T09:30:32.994Z,17.70
2019-02-05T09:33:04.502Z,19.17
2019-02-05T09:35:32.990Z,18.60
2019-02-05T09:38:01.482Z,17.37
2019-02-05T09:40:31.945Z,18.30
2019-02-05T09:43:00.763Z,16.42
2019-02-05T09:45:30.790Z,17.00
2019-02-05T09:48:00.226Z,18.30
2019-02-05T09:50:30.956Z,17.52
2019-02-05T09:52:59.420Z,15.93
2019-02-05T09:55:28.500Z,18.42
2019-02-05T09:57:56.992Z,18.35
2019-02-05T10:00:34.205Z,16.00
2019-02-05T10:03:02.636Z,18.90
2019-02-05T10:05:33.267Z,17.75
2019-02-05T10:08:01.850Z,18.42
2019-02-05T10:10:30.719Z,17.15
2019-02-05T10:12:59.148Z,17.42
2019-02-05T10:15:33.272Z,16.10
2019-02-05T10:18:02.322Z,18.70
2019-02-05T10:20:31.111Z,16.52
2019-02-05T10:23:01.850Z,16.25
2019-02-05T10:25:30.591Z,19.23
2019-02-05T10:27:59.111Z,18.70
2019-02-05T10:30:36.636Z,17.50
2019-02-05T10:33:06.967Z,18.05
2019-02-05T10:35:35.749Z,20.10
2019-02-05T10:38:09.090Z,19.60
2019-02-05T10:40:37.591Z,16.50
2019-02-05T10:43:06.464Z,20.17
2019-02-05T10:45:35.695Z,17.92
2019-02-05T10:48:05.672Z,16.27
2019-02-05T10:50:34.313Z,16.67
2019-02-05T10:53:06.228Z,16.45
2019-02-05T10:55:34.751Z,22.62
2019-02-05T10:58:03.270Z,17.52
2019-02-05T11:00:32.793Z,17.07
2019-02-05T11:03:03.539Z,16.02
2019-02-05T11:05:32.546Z,19.50
2019-02-05T11:08:01.187Z,19.55
2019-02-05T11:10:29.744Z,15.85
2019-02-05T11:12:58.253Z,19.25
2019-02-05T11:15:29.569Z,18.27
2019-02-05T11:17:58.075Z,18.02
2019-02-05T11:20:28.540Z,23.12
2019-02-05T11:22:57.129Z,18.62
2019-02-05T11:25:26.237Z,19.15
2019-02-05T11:27:54.720Z,16.48
2019-02-05T11:30:38.171Z,18.00
2019-02-05T11:33:07.054Z,17.00
2019-02-05T11:35:35.707Z,21.57
2019-02-05T11:38:05.627Z,19.27
2019-02-05T11:40:36.535Z,15.30
2019-02-05T11:43:05.839Z,16.42
2019-02-05T11:45:34.351Z,18.02
2019-02-05T11:48:05.275Z,15.70
2019-02-05T11:50:34.176Z,20.45
2019-02-05T11:53:02.674Z,19.30
2019-02-05T11:55:35.240Z,17.07
2019-02-05T11:58:04.526Z,18.25
2019-02-05T12:00:37.663Z,17.70
2019-02-05T12:03:08.395Z,17.17
2019-02-05T12:05:37.331Z,18.25
2019-02-05T12:08:06.728Z,19.65
2019-02-05T12:10:35.168Z,15.88
2019-02-05T12:13:04.124Z,20.72
2019-02-05T12:15:32.905Z,19.77
2019-02-05T12:18:01.380Z,16.85
2019-02-05T12:20:29.969Z,18.57
2019-02-05T12:22:59.373Z,18.07
2019-02-05T12:25:27.964Z,16.67
2019-02-05T12:27:56.483Z,16.67
2019-02-05T12:30:45.653Z,16.50
2019-02-05T12:33:12.058Z,21.55
2019-02-05T12:35:40.552Z,18.02
2019-02-05T12:38:10.141Z,21.30
2019-02-05T12:40:38.634Z,19.42
2019-02-05T12:43:07.125Z,16.50
2019-02-05T12:45:37.388Z,19.10
2019-02-05T12:48:07.183Z,18.07
2019-02-05T12:50:38.140Z,20.52
2019-02-05T12:53:07.207Z,18.15
2019-02-05T12:55:35.865Z,18.40
2019-02-05T12:58:05.340Z,16.87
2019-02-05T13:00:39.711Z,16.10
2019-02-05T13:03:09.338Z,16.40
2019-02-05T13:05:38.916Z,19.17
2019-02-05T13:08:07.991Z,17.55
2019-02-05T13:10:45.139Z,16.30
2019-02-05T13:13:13.917Z,18.37
2019-02-05T13:15:42.391Z,18.62
2019-02-05T13:18:11.199Z,18.98
2019-02-05T13:20:40.154Z,16.87
2019-02-05T13:23:09.412Z,18.02
2019-02-05T13:25:41.927Z,17.25
2019-02-05T13:28:11.403Z,18.48
2019-02-05T13:30:39.963Z,17.82
2019-02-05T13:33:10.243Z,15.78
2019-02-05T13:35:39.619Z,16.95
2019-02-05T13:38:08.038Z,16.50
2019-02-05T13:40:36.455Z,17.90
2019-02-05T13:43:06.436Z,18.10
2019-02-05T13:45:37.846Z,16.82
2019-02-05T13:48:07.408Z,17.42
2019-02-05T13:50:36.772Z,17.20
2019-02-05T13:53:06.423Z,17.87
2019-02-05T13:55:40.775Z,17.80
2019-02-05T13:58:09.919Z,15.98
2019-02-05T14:00:46.871Z,15.68
2019-02-05T14:03:15.275Z,16.77
2019-02-05T14:05:45.068Z,16.77
2019-02-05T14:08:14.051Z,16.60
2019-02-05T14:10:44.811Z,16.87
2019-02-05T14:13:13.322Z,17.30
2019-02-05T14:15:47.215Z,16.93
2019-02-05T14:18:15.630Z,16.60
2019-02-05T14:20:44.079Z,15.63
2019-02-05T14:23:14.038Z,18.07
2019-02-05T14:25:42.614Z,17.27
2019-02-05T14:28:11.076Z,16.00
2019-02-05T14:30:42.396Z,14.85
2019-02-05T14:33:10.795Z,15.25
2019-02-05T14:35:39.324Z,15.30
2019-02-05T14:38:08.179Z,17.30
2019-02-05T14:40:37.112Z,17.10
2019-02-05T14:43:06.507Z,17.55
2019-02-05T14:45:35.483Z,16.57
2019-02-05T14:48:04.747Z,16.15
2019-02-05T14:50:35.623Z,17.52
2019-02-05T14:53:05.483Z,15.90
2019-02-05T14:55:33.898Z,17.30
2019-02-05T14:58:02.571Z,17.00
2019-02-05T15:00:33.545Z,17.23
2019-02-05T15:03:04.870Z,17.55
2019-02-05T15:05:33.318Z,17.07
2019-02-05T15:08:01.728Z,17.05
2019-02-05T15:10:30.168Z,15.55
2019-02-05T15:12:58.656Z,17.42
2019-02-05T15:15:28.855Z,18.40
2019-02-05T15:17:57.703Z,17.65
2019-02-05T15:20:40.063Z,16.20
2019-02-05T15:23:09.369Z,18.75
2019-02-05T15:25:38.232Z,17.40
2019-02-05T15:28:07.382Z,17.65
2019-02-05T15:30:38.788Z,17.80
2019-02-05T15:33:16.467Z,18.05
2019-02-05T15:35:46.555Z,15.65
2019-02-05T15:38:14.975Z,17.48
2019-02-05T15:40:44.222Z,18.05
2019-02-05T15:43:15.530Z,17.57
2019-02-05T15:45:43.984Z,17.52
2019-02-05T15:48:12.625Z,17.75
2019-02-05T15:50:41.065Z,19.00
2019-02-05T15:53:09.571Z,18.30
2019-02-05T15:55:38.289Z,17.98
2019-02-05T15:58:06.716Z,15.80
2019-02-05T16:00:35.504Z,15.95
2019-02-05T16:03:04.751Z,16.50
2019-02-05T16:05:33.300Z,17.20
2019-02-05T16:08:01.712Z,18.17
2019-02-05T16:10:30.124Z,16.30
2019-02-05T16:12:59.046Z,16.85
2019-02-05T16:15:27.520Z,16.10
2019-02-05T16:17:56.015Z,17.17
2019-02-05T16:20:24.511Z,18.32
2019-02-05T16:22:53.522Z,19.07
2019-02-05T16:25:21.994Z,16.90
2019-02-05T16:27:50.683Z,16.07
2019-02-05T16:30:21.641Z,18.15
2019-02-05T16:32:50.080Z,17.67
2019-02-05T16:35:18.496Z,18.17
2019-02-05T16:37:47.199Z,17.27
2019-02-05T16:40:24.228Z,17.15
2019-02-05T16:42:53.155Z,19.10
2019-02-05T16:45:24.420Z,18.42
2019-02-05T16:47:52.870Z,20.10
2019-02-05T16:50:24.362Z,18.82
2019-02-05T16:52:53.791Z,19.50
2019-02-05T16:55:22.384Z,16.65
2019-02-05T16:57:51.126Z,19.50
2019-02-05T17:00:25.800Z,18.60
2019-02-05T17:02:54.281Z,18.40
2019-02-05T17:05:24.726Z,16.82
2019-02-05T17:07:53.147Z,19.40
2019-02-05T17:10:22.759Z,19.20
2019-02-05T17:12:51.180Z,18.30
2019-02-05T17:15:20.970Z,19.42
2019-02-05T17:17:49.417Z,18.23
2019-02-05T17:20:20.715Z,17.80
2019-02-05T17:22:49.707Z,19.40
2019-02-05T17:25:20.372Z,17.52
2019-02-05T17:27:48.873Z,17.42
2019-02-05T17:30:20.318Z,16.45
2019-02-05T17:32:48.981Z,18.00
2019-02-05T17:35:17.647Z,19.70
2019-02-05T17:37:46.127Z,18.80
2019-02-05T17:40:19.470Z,20.00
2019-02-05T17:42:48.522Z,18.85
2019-02-05T17:45:23.989Z,18.05
2019-02-05T17:47:53.418Z,18.67
2019-02-05T17:50:21.830Z,17.25
2019-02-05T17:52:50.279Z,16.60
2019-02-05T17:55:20.443Z,21.68
2019-02-05T17:57:48.922Z,18.65
2019-02-05T18:00:25.183Z,17.27
2019-02-05T18:02:54.414Z,16.57
2019-02-05T18:05:22.938Z,17.95
2019-02-05T18:07:51.540Z,20.92
2019-02-05T18:10:23.256Z,19.80
2019-02-05T18:12:51.921Z,17.25
2019-02-05T18:15:38.172Z,19.40
2019-02-05T18:18:07.582Z,17.50
2019-02-05T18:20:36.841Z,18.10
2019-02-05T18:23:05.888Z,19.98
2019-02-05T18:25:34.518Z,18.62
2019-02-05T18:28:03.109Z,17.17
2019-02-05T18:30:42.827Z,17.60
2019-02-05T18:33:11.674Z,17.45
2019-02-05T18:35:40.247Z,17.80
2019-02-05T18:38:11.754Z,18.75
2019-02-05T18:40:40.178Z,17.42
2019-02-05T18:43:09.000Z,21.65
2019-02-05T18:45:37.518Z,19.65
2019-02-05T18:48:07.012Z,21.87
2019-02-05T18:50:35.458Z,20.85
2019-02-05T18:53:04.031Z,17.95
2019-02-05T18:55:37.970Z,19.12
2019-02-05T18:58:09.674Z,19.62
2019-02-05T19:00:40.936Z,20.30
2019-02-05T19:03:15.759Z,21.52
2019-02-05T19:05:40.234Z,19.98
2019-02-05T19:08:09.718Z,20.92
2019-02-05T19:10:38.205Z,19.05
2019-02-05T19:13:06.882Z,20.43
2019-02-05T19:15:39.738Z,21.80
2019-02-05T19:18:09.755Z,19.32
2019-02-05T19:20:38.186Z,18.50
2019-02-05T19:23:08.540Z,19.42
2019-02-05T19:25:41.748Z,20.95
2019-02-05T19:28:11.978Z,18.85
2019-02-05T19:30:48.535Z,20.27
2019-02-05T19:33:26.866Z,19.05
2019-02-05T19:35:47.125Z,21.07
2019-02-05T19:38:15.655Z,20.85
2019-02-05T19:40:44.067Z,21.20
2019-02-05T19:43:12.884Z,20.80
2019-02-05T19:46:00.767Z,19.52
2019-02-05T19:48:33.690Z,21.77
2019-02-05T19:51:02.885Z,19.60
2019-02-05T19:53:31.395Z,20.85
2019-02-05T19:56:00.519Z,22.05
2019-02-05T19:58:28.973Z,21.77
2019-02-05T20:00:57.437Z,20.95
2019-02-05T20:03:25.851Z,23.92
2019-02-05T20:05:54.309Z,26.82
2019-02-05T20:08:22.726Z,21.90
2019-02-05T20:10:51.323Z,22.60
2019-02-05T20:13:19.782Z,22.32
2019-02-05T20:15:51.098Z,21.73
2019-02-05T20:18:18.449Z,18.92
2019-02-05T20:20:46.910Z,24.00
2019-02-05T20:23:16.219Z,20.37
2019-02-05T20:25:44.715Z,22.60
2019-02-05T20:28:13.173Z,23.35
2019-02-05T20:30:42.008Z,20.68
2019-02-05T20:33:10.443Z,22.45
2019-02-05T20:35:38.931Z,25.32
2019-02-05T20:38:07.393Z,22.82
2019-02-05T20:40:35.812Z,24.95
2019-02-05T20:43:04.734Z,22.02
2019-02-05T20:45:33.168Z,20.95
2019-02-05T20:48:05.166Z,20.72
2019-02-05T20:50:34.054Z,21.20
2019-02-05T20:53:13.025Z,24.63
2019-02-05T20:55:32.783Z,23.90
2019-02-05T20:58:01.298Z,20.68
2019-02-05T21:00:31.675Z,20.80
2019-02-05T21:03:00.167Z,22.75
2019-02-05T21:05:28.803Z,20.60
2019-02-05T21:07:57.789Z,21.87
2019-02-05T21:10:30.755Z,21.60
2019-02-05T21:12:59.371Z,22.70
2019-02-05T21:15:28.362Z,23.20
2019-02-05T21:17:57.074Z,25.37
2019-02-05T21:20:32.109Z,21.45
2019-02-05T21:22:58.455Z,22.37
2019-02-05T21:25:27.307Z,23.07
2019-02-05T21:27:58.286Z,22.15
2019-02-05T21:30:26.476Z,21.23
2019-02-05T21:32:55.423Z,24.18
2019-02-05T21:35:23.877Z,23.83
2019-02-05T21:37:52.648Z,21.90
2019-02-05T21:40:25.083Z,24.23
2019-02-05T21:42:53.573Z,24.25
2019-02-05T21:45:26.764Z,22.85
2019-02-05T21:47:55.258Z,21.20
2019-02-05T21:50:24.438Z,22.82
2019-02-05T21:52:53.046Z,23.02
2019-02-05T21:55:28.671Z,22.00
2019-02-05T21:57:57.402Z,22.58
2019-02-05T22:00:27.938Z,21.12
2019-02-05T22:02:57.318Z,24.52
2019-02-05T22:05:27.355Z,19.42
2019-02-05T22:07:56.244Z,21.95
2019-02-05T22:10:25.191Z,22.13
2019-02-05T22:12:53.906Z,22.70
2019-02-05T22:15:22.991Z,23.38
2019-02-05T22:17:51.605Z,21.57
2019-02-05T22:20:22.793Z,19.95
2019-02-05T22:22:51.280Z,21.80
2019-02-05T22:25:22.340Z,21.48
2019-02-05T22:27:50.771Z,20.35
2019-02-05T22:30:24.704Z,21.15
2019-02-05T22:32:53.365Z,22.58
2019-02-05T22:35:22.150Z,21.15
2019-02-05T22:37:51.071Z,24.07
2019-02-05T22:40:21.632Z,20.08
2019-02-05T22:42:50.678Z,22.37
2019-02-05T22:45:22.436Z,24.40
2019-02-05T22:47:51.074Z,23.22
2019-02-05T22:50:25.154Z,19.92
2019-02-05T22:52:53.706Z,21.85
2019-02-05T22:55:22.182Z,20.12
2019-02-05T22:57:50.880Z,22.35
2019-02-05T23:00:29.781Z,20.82
2019-02-05T23:02:58.284Z,22.40
2019-02-05T23:05:37.333Z,21.50
2019-02-05T23:08:07.159Z,20.85
2019-02-05T23:10:44.401Z,24.95
2019-02-05T23:13:12.892Z,24.05
2019-02-05T23:15:41.482Z,23.05
2019-02-05T23:18:10.468Z,23.38
2019-02-05T23:20:41.735Z,23.20
2019-02-05T23:23:10.187Z,27.25
2019-02-05T23:25:38.607Z,23.60
2019-02-05T23:28:07.619Z,21.93
2019-02-05T23:30:36.250Z,22.40
2019-02-05T23:33:04.737Z,21.68
2019-02-05T23:35:37.454Z,24.25
2019-02-05T23:38:06.169Z,21.40
2019-02-05T23:40:34.592Z,21.10
2019-02-05T23:43:03.107Z,21.45
2019-02-05T23:45:31.536Z,20.68
2019-02-05T23:47:59.970Z,22.67
2019-02-05T23:50:28.600Z,23.70
2019-02-05T23:52:57.067Z,24.32
2019-02-05T23:55:25.667Z,22.52
2019-02-05T23:57:54.074Z,23.10
